Time;durP1;ratioP1;P1;durP2;ratioP2;P2;SDS_P1;SDS_P2;PMS_P1;PMS_P2;Temp;Humidity;BMP_temperature;BMP_pressure;BME280_temperature;BME280_humidity;BME280_pressure;Samples;Min_cycle;Max_cycle;Signal;HPM_P1;HPM_P2
2021/05/26 00:01:14;;;;;;;2.83;0.80;;;;;;;11.21;58.80;96857.78;5115338;28;20204;-64
2021/05/26 00:03:41;;;;;;;1.03;0.67;;;;;;;11.30;59.21;96858.25;5112869;28;20244;-64
2021/05/26 00:06:06;;;;;;;2.40;0.63;;;;;;;11.20;59.50;96850.97;5114969;28;20199;-62
2021/05/26 00:08:34;;;;;;;0.60;0.50;;;;;;;11.31;59.38;96857.22;5115028;28;20168;-63
2021/05/26 00:11:02;;;;;;;0.60;0.60;;;;;;;11.31;59.49;96854.59;5114253;28;20171;-63
2021/05/26 00:13:27;;;;;;;0.70;0.70;;;;;;;11.26;59.68;96845.56;5114804;28;20172;-63
2021/05/26 00:15:54;;;;;;;0.70;0.70;;;;;;;11.26;60.03;96842.16;5114309;28;20183;-62
2021/05/26 00:18:20;;;;;;;1.50;0.77;;;;;;;11.25;60.08;96841.38;5114645;28;20191;-63
2021/05/26 00:20:47;;;;;;;2.23;0.80;;;;;;;11.37;59.75;96840.56;5114587;28;20192;-63
2021/05/26 00:23:14;;;;;;;1.20;0.53;;;;;;;11.27;60.14;96836.69;5115101;28;20172;-63
2021/05/26 00:25:39;;;;;;;2.67;0.87;;;;;;;11.34;60.18;96835.75;5114507;28;20258;-63
2021/05/26 00:28:05;;;;;;;0.60;0.60;;;;;;;11.29;60.78;96835.66;5114460;28;20270;-63
2021/05/26 00:30:35;;;;;;;1.33;0.80;;;;;;;11.27;60.82;96825.38;5114244;28;20165;-64
2021/05/26 00:33:01;;;;;;;0.70;0.57;;;;;;;11.26;60.63;96815.91;5114405;28;20175;-62
2021/05/26 00:35:26;;;;;;;0.50;0.50;;;;;;;11.26;61.10;96823.78;5114910;28;20565;-60
2021/05/26 00:37:52;;;;;;;1.30;0.70;;;;;;;11.34;60.55;96817.41;5114222;28;20241;-61
2021/05/26 00:40:18;;;;;;;1.37;0.97;;;;;;;11.33;60.69;96819.22;5113419;28;20287;-63
2021/05/26 00:42:44;;;;;;;1.80;0.70;;;;;;;11.43;60.37;96819.44;5114452;28;20168;-61
2021/05/26 00:45:10;;;;;;;1.77;0.80;;;;;;;11.39;60.44;96815.69;5113986;28;20184;-64
2021/05/26 00:47:54;;;;;;;0.60;0.60;;;;;;;11.34;60.87;96812.94;5114368;28;20206;-63
2021/05/26 00:50:24;;;;;;;1.37;0.50;;;;;;;11.32;61.22;96799.25;5114014;28;20244;-64
2021/05/26 00:52:52;;;;;;;0.70;0.70;;;;;;;11.34;61.00;96802.44;5098582;28;20171;-64
2021/05/26 00:55:19;;;;;;;0.40;0.40;;;;;;;11.44;60.62;96799.22;5114015;28;20201;-63
2021/05/26 00:57:48;;;;;;;0.70;0.70;;;;;;;11.44;60.87;96799.22;5105622;28;20232;-64
2021/05/26 01:00:17;;;;;;;0.70;0.60;;;;;;;11.37;60.89;96788.84;5075415;28;20216;-63
2021/05/26 01:02:45;;;;;;;0.83;0.83;;;;;;;11.36;60.76;96791.72;5091369;28;20211;-64
2021/05/26 01:05:12;;;;;;;1.70;0.60;;;;;;;11.42;60.45;96794.25;5093637;28;20169;-63
2021/05/26 01:07:39;;;;;;;0.83;0.63;;;;;;;11.27;60.97;96799.16;5093702;28;20201;-62
2021/05/26 01:10:06;;;;;;;1.63;0.80;;;;;;;11.32;61.01;96804.50;5092556;28;20259;-63
2021/05/26 01:12:32;;;;;;;1.03;0.70;;;;;;;11.42;60.50;96807.34;5093795;28;20169;-62
2021/05/26 01:14:57;;;;;;;0.93;0.70;;;;;;;11.41;60.43;96813.63;5092970;28;20302;-63
2021/05/26 01:17:23;;;;;;;1.93;0.83;;;;;;;11.47;60.95;96811.91;5093742;28;20196;-62
2021/05/26 01:19:48;;;;;;;0.60;0.60;;;;;;;11.35;62.69;96817.16;5092545;28;20200;-63
2021/05/26 01:22:14;;;;;;;2.37;0.80;;;;;;;11.31;63.83;96815.25;5093232;28;20206;-63
2021/05/26 01:24:39;;;;;;;0.60;0.60;;;;;;;11.17;64.25;96814.66;5093115;28;20188;-63
2021/05/26 01:27:05;;;;;;;2.17;0.90;;;;;;;10.94;66.09;96801.56;5092945;28;20330;-63
2021/05/26 01:29:31;;;;;;;1.47;0.60;;;;;;;10.78;66.73;96798.59;5093354;28;20218;-63
2021/05/26 01:31:59;;;;;;;4.67;0.87;;;;;;;10.63;68.45;96789.59;5092773;28;20328;-63
2021/05/26 01:34:25;;;;;;;0.70;0.70;;;;;;;10.67;69.74;96801.19;5092971;28;20172;-63
2021/05/26 01:36:51;;;;;;;0.70;0.70;;;;;;;10.52;71.13;96801.66;5091901;28;20353;-62
2021/05/26 01:39:17;;;;;;;1.47;0.93;;;;;;;10.50;71.70;96787.97;5092881;28;20195;-62
2021/05/26 01:41:44;;;;;;;0.80;0.80;;;;;;;10.52;72.21;96793.78;5092566;28;20665;-64
2021/05/26 01:44:10;;;;;;;0.50;0.50;;;;;;;10.32;72.80;96791.47;5093214;28;20177;-63
2021/05/26 01:46:36;;;;;;;0.60;0.60;;;;;;;10.39;72.02;96786.13;5092850;28;20207;-62
2021/05/26 01:49:03;;;;;;;0.83;0.83;;;;;;;10.40;72.60;96785.91;5091745;28;20185;-63
2021/05/26 01:51:30;;;;;;;2.13;0.70;;;;;;;10.38;73.44;96782.69;5092354;28;20180;-63
2021/05/26 01:53:56;;;;;;;1.30;0.70;;;;;;;10.38;73.78;96768.78;5073788;28;20267;-63
2021/05/26 01:56:24;;;;;;;0.93;0.80;;;;;;;10.36;73.93;96755.16;5092133;28;20722;-63
2021/05/26 01:58:51;;;;;;;2.17;0.97;;;;;;;10.41;72.99;96748.19;5104105;28;20234;-63
2021/05/26 02:01:21;;;;;;;0.90;0.90;;;;;;;10.40;71.97;96751.84;5112717;28;20208;-62
2021/05/26 02:03:47;;;;;;;2.63;0.80;;;;;;;10.36;73.09;96758.56;5109759;28;20186;-64
2021/05/26 02:06:14;;;;;;;1.60;0.80;;;;;;;10.43;72.41;96751.38;5112796;28;20707;-63
2021/05/26 02:08:40;;;;;;;1.63;0.90;;;;;;;10.39;72.60;96742.38;5112713;28;20204;-63
2021/05/26 02:13:51;;;;;;;1.87;0.83;;;;;;;10.29;73.20;96744.75;5112150;28;20179;-61
2021/05/26 02:16:17;;;;;;;0.80;0.80;;;;;;;10.34;73.15;96741.47;5112443;28;20208;-63
2021/05/26 02:18:48;;;;;;;0.60;0.60;;;;;;;10.34;73.04;96746.69;5112478;28;20194;-64
2021/05/26 02:21:14;;;;;;;0.70;0.70;;;;;;;10.32;73.43;96741.69;5112877;28;20199;-63
2021/05/26 02:23:39;;;;;;;0.70;0.70;;;;;;;10.36;73.63;96729.75;5112633;28;20179;-64
2021/05/26 02:26:05;;;;;;;0.80;0.80;;;;;;;10.09;74.32;96731.13;5111739;28;20310;-64
2021/05/26 02:28:30;;;;;;;1.03;0.60;;;;;;;10.19;73.63;96733.25;5112517;28;20578;-63
2021/05/26 02:30:56;;;;;;;0.90;0.90;;;;;;;10.12;74.33;96722.84;5112055;28;20185;-64
2021/05/26 02:33:21;;;;;;;0.80;0.80;;;;;;;10.13;74.11;96727.06;5112349;28;20172;-64
2021/05/26 02:35:47;;;;;;;1.40;0.97;;;;;;;10.30;73.59;96722.78;5111397;28;20168;-64
2021/05/26 02:38:13;;;;;;;0.60;0.60;;;;;;;10.25;73.55;96717.41;5112312;28;20168;-63
2021/05/26 02:40:38;;;;;;;0.73;0.73;;;;;;;10.26;73.82;96716.38;5094637;28;20740;-62
2021/05/26 02:43:05;;;;;;;0.60;0.60;;;;;;;10.08;74.79;96713.84;5111730;28;20839;-63
2021/05/26 02:45:31;;;;;;;1.47;0.60;;;;;;;10.24;73.77;96715.84;5111862;28;20295;-64
2021/05/26 02:47:58;;;;;;;0.80;0.80;;;;;;;10.08;74.82;96719.06;5111416;28;20200;-63
2021/05/26 02:50:23;;;;;;;2.97;1.30;;;;;;;10.12;74.71;96730.69;5111789;28;20186;-63
2021/05/26 02:52:52;;;;;;;2.17;1.10;;;;;;;10.18;75.01;96729.03;5111570;28;20167;-64
2021/05/26 02:55:20;;;;;;;1.40;0.93;;;;;;;10.17;75.09;96737.91;5112030;28;20180;-64
2021/05/26 02:57:48;;;;;;;0.83;0.83;;;;;;;10.07;76.05;96741.03;5109427;28;20224;-64
2021/05/26 03:00:17;;;;;;;1.70;0.90;;;;;;;10.13;76.26;96742.78;5095024;28;20279;-63
2021/05/26 03:02:43;;;;;;;1.27;1.00;;;;;;;10.06;77.80;96746.50;5109432;28;20647;-62
2021/05/26 03:05:10;;;;;;;1.43;1.07;;;;;;;10.07;78.30;96741.03;5103192;28;20173;-63
2021/05/26 03:07:36;;;;;;;0.70;0.70;;;;;;;10.01;79.43;96734.88;5104081;28;20278;-63
2021/05/26 03:10:02;;;;;;;1.53;1.00;;;;;;;10.02;79.85;96731.25;5094778;28;20260;-62
2021/05/26 03:12:27;;;;;;;1.50;0.90;;;;;;;9.95;79.75;96734.97;5102536;28;20181;-63
2021/05/26 03:14:53;;;;;;;1.80;0.90;;;;;;;9.94;79.69;96728.13;5110731;28;20175;-63
2021/05/26 03:17:18;;;;;;;1.70;0.90;;;;;;;9.91;80.01;96726.78;5102030;28;20617;-63
2021/05/26 03:19:44;;;;;;;0.80;0.80;;;;;;;10.05;80.16;96731.81;5104584;28;20536;-63
2021/05/26 03:22:10;;;;;;;1.80;0.80;;;;;;;9.89;80.83;96714.91;5100718;28;20175;-63
2021/05/26 03:24:35;;;;;;;1.00;1.00;;;;;;;10.03;79.83;96719.72;5099483;28;20207;-64
2021/05/26 03:27:02;;;;;;;1.13;1.00;;;;;;;9.84;80.77;96715.59;5098422;28;20698;-64
2021/05/26 03:29:27;;;;;;;0.83;0.83;;;;;;;9.88;79.81;96716.72;5101550;28;20223;-62
2021/05/26 03:31:53;;;;;;;1.60;0.90;;;;;;;9.79;80.26;96714.66;5096554;28;20621;-64
2021/05/26 03:34:22;;;;;;;1.00;1.00;;;;;;;9.69;81.43;96702.13;5091284;28;20164;-62
2021/05/26 03:36:49;;;;;;;1.20;1.10;;;;;;;9.83;80.45;96707.97;5109322;28;20207;-63
2021/05/26 03:39:14;;;;;;;1.93;1.10;;;;;;;9.74;81.09;96711.91;5109178;28;20707;-64
2021/05/26 03:41:40;;;;;;;0.80;0.80;;;;;;;9.84;80.47;96704.31;5106917;28;20193;-62
2021/05/26 03:44:07;;;;;;;1.00;0.90;;;;;;;9.59;80.34;96707.88;5098951;28;20434;-63
2021/05/26 03:46:34;;;;;;;2.77;1.57;;;;;;;9.84;79.70;96696.47;5102787;28;20203;-63
2021/05/26 03:49:00;;;;;;;1.03;1.00;;;;;;;9.81;79.73;96694.28;5095469;28;20229;-63
2021/05/26 03:51:25;;;;;;;1.70;1.10;;;;;;;9.87;78.97;96690.78;5106837;28;20267;-63
2021/05/26 03:53:51;;;;;;;0.80;0.80;;;;;;;9.87;79.11;96688.94;5098092;28;20184;-64
2021/05/26 03:56:16;;;;;;;0.90;0.90;;;;;;;9.84;78.77;96693.84;5094381;28;20205;-63
2021/05/26 03:58:42;;;;;;;1.93;1.17;;;;;;;9.90;78.83;96696.38;5104238;28;20220;-63
2021/05/26 04:01:07;;;;;;;1.00;0.90;;;;;;;9.96;79.09;96686.81;5093307;28;20202;-63
2021/05/26 04:03:33;;;;;;;0.93;0.93;;;;;;;9.91;79.33;96678.84;5096269;28;20237;-63
2021/05/26 04:05:58;;;;;;;1.10;1.10;;;;;;;9.78;79.97;96677.22;5103226;28;20221;-62
2021/05/26 04:08:24;;;;;;;1.13;1.07;;;;;;;9.90;80.07;96672.00;5101833;28;20189;-63
2021/05/26 04:10:49;;;;;;;0.90;0.90;;;;;;;9.98;80.26;96675.09;5103490;28;20200;-64
2021/05/26 04:13:14;;;;;;;1.27;1.00;;;;;;;10.03;80.02;96672.59;5082092;28;20600;-63
2021/05/26 04:15:40;;;;;;;2.67;1.10;;;;;;;10.08;79.71;96673.75;5107427;28;20180;-63
2021/05/26 04:18:07;;;;;;;1.80;1.10;;;;;;;10.05;80.39;96680.22;5106412;28;20279;-63
2021/05/26 04:20:33;;;;;;;2.30;1.00;;;;;;;9.91;81.12;96682.28;5105060;28;20191;-63
2021/05/26 04:22:59;;;;;;;1.47;1.10;;;;;;;9.94;80.66;96683.63;5104870;28;20732;-63
2021/05/26 04:25:25;;;;;;;2.20;1.10;;;;;;;9.91;80.34;96682.28;5104692;28;20169;-63
2021/05/26 04:27:52;;;;;;;1.10;1.00;;;;;;;9.94;80.19;96692.28;5112278;28;20206;-63
2021/05/26 04:30:18;;;;;;;0.90;0.90;;;;;;;9.95;80.39;96687.84;5111965;28;20196;-63
2021/05/26 04:32:44;;;;;;;2.43;0.90;;;;;;;9.81;81.55;96695.09;5109340;28;20175;-63
2021/05/26 04:35:10;;;;;;;1.47;1.30;;;;;;;9.84;82.79;96683.38;5101971;28;20247;-61
2021/05/26 04:37:36;;;;;;;1.00;1.00;;;;;;;9.92;82.46;96685.66;5102176;28;20232;-63
2021/05/26 04:40:03;;;;;;;2.80;1.30;;;;;;;9.93;82.87;96690.69;5093739;28;20236;-63
2021/05/26 04:42:29;;;;;;;1.67;1.10;;;;;;;9.94;83.24;96673.16;5103395;28;20187;-63
2021/05/26 04:44:54;;;;;;;1.67;1.20;;;;;;;9.92;84.22;96673.38;5094296;28;20185;-63
2021/05/26 04:47:20;;;;;;;1.27;1.20;;;;;;;9.87;84.94;96675.06;5097428;28;20288;-63
2021/05/26 04:49:45;;;;;;;3.23;1.23;;;;;;;9.92;84.20;96672.56;5113814;28;20282;-63
2021/05/26 04:52:11;;;;;;;1.20;1.10;;;;;;;9.89;85.38;96668.59;5104396;28;20230;-63
2021/05/26 04:54:36;;;;;;;1.17;1.13;;;;;;;9.95;84.99;96666.91;5102959;28;20176;-63
2021/05/26 04:57:01;;;;;;;1.47;1.10;;;;;;;9.90;84.98;96659.72;5093485;28;20235;-63
2021/05/26 04:59:27;;;;;;;2.27;1.40;;;;;;;9.80;85.97;96669.16;5110190;28;20729;-63
2021/05/26 05:01:52;;;;;;;1.10;1.07;;;;;;;9.87;86.02;96660.16;5110875;28;20200;-63
2021/05/26 05:04:18;;;;;;;2.70;1.00;;;;;;;9.94;85.12;96655.63;5097236;28;20191;-63
2021/05/26 05:06:43;;;;;;;1.83;1.40;;;;;;;9.87;85.51;96656.75;5100600;28;20199;-62
2021/05/26 05:09:10;;;;;;;1.80;1.20;;;;;;;9.76;86.79;96660.94;5097050;28;20173;-62
2021/05/26 05:11:36;;;;;;;1.53;1.33;;;;;;;9.80;86.94;96663.91;5097451;28;20177;-65
2021/05/26 05:14:02;;;;;;;1.23;1.23;;;;;;;9.88;86.84;96661.75;5093362;28;20209;-63
2021/05/26 05:16:27;;;;;;;1.90;1.17;;;;;;;9.92;86.38;96657.66;5103617;28;20301;-62
2021/05/26 05:18:54;;;;;;;1.40;1.20;;;;;;;9.87;87.64;96654.13;5103963;28;20672;-62
2021/05/26 05:21:20;;;;;;;1.17;1.10;;;;;;;9.93;86.86;96661.88;5105088;28;20192;-62
2021/05/26 05:23:45;;;;;;;1.37;1.27;;;;;;;9.94;86.79;96662.69;5113414;28;20176;-64
2021/05/26 05:26:11;;;;;;;1.10;1.10;;;;;;;9.81;87.75;96658.44;5103654;28;20203;-64
2021/05/26 05:28:36;;;;;;;1.17;1.00;;;;;;;9.89;87.89;96654.72;5112576;28;20183;-63
2021/05/26 05:31:02;;;;;;;2.83;1.50;;;;;;;9.84;87.74;96641.50;5103897;28;20697;-64
2021/05/26 05:33:28;;;;;;;1.20;1.20;;;;;;;9.79;88.92;96644.00;5102515;28;20177;-61
2021/05/26 05:35:54;;;;;;;1.47;1.37;;;;;;;9.85;88.42;96637.88;5100457;28;20247;-62
2021/05/26 05:38:20;;;;;;;1.97;1.40;;;;;;;9.77;89.24;96641.59;5101695;28;20260;-62
2021/05/26 05:40:48;;;;;;;1.10;0.97;;;;;;;9.71;90.82;96633.84;5093119;28;20196;-62
2021/05/26 05:43:14;;;;;;;2.70;1.30;;;;;;;9.73;90.37;96624.75;5100770;28;20287;-63
2021/05/26 05:45:40;;;;;;;1.57;1.20;;;;;;;9.86;89.76;96623.75;5101483;28;20179;-64
2021/05/26 05:48:06;;;;;;;1.03;1.03;;;;;;;9.85;90.11;96630.81;5107923;28;20193;-64
2021/05/26 05:50:31;;;;;;;1.73;1.13;;;;;;;9.93;89.44;96637.53;5094553;28;20188;-64
2021/05/26 05:52:56;;;;;;;3.23;1.40;;;;;;;10.03;88.52;96635.94;5100155;28;20205;-64
2021/05/26 05:55:22;;;;;;;1.40;1.20;;;;;;;9.96;89.30;96643.13;5103986;28;20188;-64
2021/05/26 05:57:49;;;;;;;0.97;0.97;;;;;;;9.98;89.79;96648.09;5104542;28;20735;-65
2021/05/26 06:00:15;;;;;;;1.00;0.93;;;;;;;10.03;89.93;96635.94;5110177;28;20295;-64
2021/05/26 06:02:41;;;;;;;1.20;1.10;;;;;;;9.94;90.39;96636.50;5111812;28;20263;-64
2021/05/26 06:05:08;;;;;;;1.50;1.40;;;;;;;9.86;91.32;96632.38;5111585;28;20833;-64
2021/05/26 06:07:33;;;;;;;2.07;1.40;;;;;;;9.73;92.24;96629.19;5111997;28;20200;-63
2021/05/26 06:09:59;;;;;;;3.43;1.60;;;;;;;9.91;92.56;96632.53;5111054;28;20247;-64
2021/05/26 06:12:25;;;;;;;1.40;1.30;;;;;;;9.84;93.32;96631.03;5111916;28;20199;-64
2021/05/26 06:14:50;;;;;;;1.67;1.57;;;;;;;9.97;92.40;96628.97;5111332;28;20268;-65
2021/05/26 06:17:16;;;;;;;1.30;1.20;;;;;;;10.03;92.16;96632.50;5111719;28;20713;-64
2021/05/26 06:19:41;;;;;;;1.17;1.17;;;;;;;9.98;92.17;96635.03;5111704;28;20175;-64
2021/05/26 06:22:07;;;;;;;2.10;1.67;;;;;;;10.08;92.26;96630.03;5110929;28;20656;-64
2021/05/26 06:24:33;;;;;;;1.80;1.40;;;;;;;10.21;92.34;96623.78;5111642;28;20180;-67
2021/05/26 06:26:58;;;;;;;1.67;1.23;;;;;;;10.18;92.84;96619.03;5111503;28;20234;-67
2021/05/26 06:29:24;;;;;;;1.47;1.37;;;;;;;10.31;92.69;96621.41;5112051;28;20226;-66
2021/05/26 06:31:50;;;;;;;1.53;1.30;;;;;;;10.32;92.86;96617.75;5110297;28;20180;-67
2021/05/26 06:34:16;;;;;;;1.97;1.67;;;;;;;10.54;91.22;96608.28;5112073;28;20284;-66
2021/05/26 06:36:41;;;;;;;4.73;1.67;;;;;;;10.47;90.37;96602.38;5111709;28;20211;-66
2021/05/26 06:39:07;;;;;;;1.57;1.40;;;;;;;10.37;91.44;96610.81;5106411;28;20794;-66
2021/05/26 06:41:32;;;;;;;1.30;1.20;;;;;;;10.41;91.93;96614.59;5110884;28;20248;-66
2021/05/26 06:43:58;;;;;;;1.30;1.30;;;;;;;10.44;91.83;96615.94;5111268;28;20168;-67
2021/05/26 06:46:24;;;;;;;3.80;1.50;;;;;;;10.43;91.72;96620.38;5111140;28;20203;-66
2021/05/26 06:48:49;;;;;;;1.90;1.60;;;;;;;10.38;91.81;96625.50;5111960;28;20180;-67
2021/05/26 06:51:15;;;;;;;3.77;1.23;;;;;;;10.40;89.87;96610.38;5112336;28;20176;-67
2021/05/26 06:53:40;;;;;;;1.30;1.20;;;;;;;10.37;91.13;96613.44;5112450;28;20187;-65
2021/05/26 06:56:06;;;;;;;2.00;1.07;;;;;;;10.35;90.49;96614.69;5110933;28;20660;-65
2021/05/26 06:58:32;;;;;;;2.67;1.20;;;;;;;10.54;89.89;96612.72;5107766;28;20699;-65
2021/05/26 07:00:57;;;;;;;1.40;1.20;;;;;;;10.62;89.74;96602.69;5108574;28;20195;-65
2021/05/26 07:03:23;;;;;;;2.43;1.30;;;;;;;10.72;89.04;96602.09;5111253;28;20540;-66
2021/05/26 07:05:48;;;;;;;1.63;1.20;;;;;;;10.84;88.75;96602.88;5111199;28;20259;-64
2021/05/26 07:08:14;;;;;;;1.17;1.07;;;;;;;10.85;89.01;96604.47;5110582;28;20172;-65
2021/05/26 07:10:39;;;;;;;2.10;1.33;;;;;;;10.79;90.30;96597.53;5110982;28;20172;-65
2021/05/26 07:13:06;;;;;;;1.30;1.20;;;;;;;10.84;89.24;96582.69;5110200;28;20171;-65
2021/05/26 07:15:32;;;;;;;1.63;1.53;;;;;;;10.74;89.67;96587.75;5111584;28;20172;-65
2021/05/26 07:18:03;;;;;;;1.83;1.40;;;;;;;10.74;89.96;96594.81;5109728;28;20213;-65
2021/05/26 07:20:28;;;;;;;1.43;1.10;;;;;;;10.76;90.24;96583.03;5110538;28;20227;-65
2021/05/26 07:22:55;;;;;;;1.20;1.20;;;;;;;10.65;89.15;96586.50;5109970;28;20219;-65
2021/05/26 07:25:20;;;;;;;1.20;1.10;;;;;;;10.69;89.80;96592.88;5111674;28;20541;-65
2021/05/26 07:27:46;;;;;;;1.53;1.30;;;;;;;10.78;90.65;96585.44;5110608;28;20222;-66
2021/05/26 07:30:12;;;;;;;1.50;1.40;;;;;;;10.72;91.01;96584.53;5110264;28;20160;-66
2021/05/26 07:32:38;;;;;;;1.57;1.17;;;;;;;10.86;89.71;96586.91;5111172;28;20640;-65
2021/05/26 07:35:04;;;;;;;3.07;1.27;;;;;;;10.77;89.57;96587.28;5109828;28;20184;-66
2021/05/26 07:37:30;;;;;;;3.10;1.50;;;;;;;10.72;90.00;96589.78;5110725;28;20200;-66
2021/05/26 07:39:55;;;;;;;2.70;1.30;;;;;;;10.84;88.96;96576.66;5093503;28;20196;-65
2021/05/26 07:42:21;;;;;;;1.33;1.10;;;;;;;10.81;87.55;96582.38;5110835;28;20176;-65
2021/05/26 07:44:47;;;;;;;2.60;1.30;;;;;;;10.90;84.42;96586.22;5109976;28;20195;-66
2021/05/26 07:47:12;;;;;;;2.03;1.40;;;;;;;10.90;83.56;96580.97;5109603;28;20195;-66
2021/05/26 07:49:38;;;;;;;3.60;1.20;;;;;;;11.02;83.33;96580.94;5112713;28;20191;-65
2021/05/26 07:52:07;;;;;;;2.00;1.50;;;;;;;10.93;81.35;96595.41;5114010;28;20222;-64
2021/05/26 07:54:32;;;;;;;1.20;1.10;;;;;;;10.94;81.33;96589.94;5115593;28;20200;-64
2021/05/26 07:56:59;;;;;;;1.30;1.13;;;;;;;10.95;81.85;96598.63;5115988;28;20562;-65
2021/05/26 07:59:25;;;;;;;3.57;1.60;;;;;;;10.94;78.17;96589.16;5091248;28;20281;-66
2021/05/26 08:01:53;;;;;;;1.67;1.10;;;;;;;10.86;78.84;96600.81;5094351;28;20757;-66
2021/05/26 08:04:19;;;;;;;2.57;1.53;;;;;;;11.00;80.23;96588.22;5093551;28;20528;-66
2021/05/26 08:06:46;;;;;;;1.83;1.50;;;;;;;10.95;79.64;96596.78;5093820;28;20196;-66
2021/05/26 08:09:12;;;;;;;1.83;1.70;;;;;;;11.11;78.98;96587.38;5082004;28;20217;-66
2021/05/26 08:11:38;;;;;;;2.70;1.80;;;;;;;11.11;79.90;96582.94;5093984;28;20164;-66
2021/05/26 08:14:03;;;;;;;2.77;1.40;;;;;;;11.15;79.83;96578.81;5093330;28;20179;-66
2021/05/26 08:16:29;;;;;;;1.67;1.50;;;;;;;11.26;81.31;96583.19;5093134;28;20204;-66
2021/05/26 08:18:55;;;;;;;1.90;1.37;;;;;;;11.38;79.50;96574.47;5092417;28;20840;-67
2021/05/26 08:21:21;;;;;;;2.73;1.87;;;;;;;11.42;79.52;96573.78;5093379;28;20192;-66
2021/05/26 08:23:46;;;;;;;1.30;1.20;;;;;;;11.51;78.57;96587.31;5093422;28;20267;-65
2021/05/26 08:26:16;;;;;;;2.30;1.33;;;;;;;11.37;77.32;96576.31;5092363;28;20197;-66
2021/05/26 08:28:43;;;;;;;2.80;1.57;;;;;;;11.36;78.42;96574.72;5093380;28;20187;-66
2021/05/26 08:31:09;;;;;;;2.53;1.20;;;;;;;11.29;76.58;96586.41;5073331;28;20181;-66
2021/05/26 08:33:35;;;;;;;1.33;1.10;;;;;;;11.35;78.80;96577.59;5093682;28;20176;-66
2021/05/26 08:36:00;;;;;;;1.83;1.47;;;;;;;11.36;78.53;96585.22;5092533;28;20265;-66
2021/05/26 08:38:26;;;;;;;1.53;1.10;;;;;;;11.41;79.23;96582.69;5092183;28;20188;-67
2021/05/26 08:40:55;;;;;;;3.33;1.20;;;;;;;11.54;77.89;96585.00;5094559;28;20224;-66
2021/05/26 08:43:23;;;;;;;2.37;1.53;;;;;;;11.49;79.30;96581.50;5077087;28;20176;-66
2021/05/26 08:45:48;;;;;;;2.40;1.33;;;;;;;11.60;78.52;96588.50;5093255;28;20208;-66
2021/05/26 08:48:16;;;;;;;2.03;1.30;;;;;;;11.53;78.08;96583.44;5092312;28;20223;-65
2021/05/26 08:50:49;;;;;;;1.30;1.20;;;;;;;11.32;78.34;96584.09;5093425;28;20193;-64
2021/05/26 08:53:14;;;;;;;4.13;1.30;;;;;;;11.31;79.21;96582.53;5092707;28;20181;-64
2021/05/26 08:55:41;;;;;;;1.03;1.00;;;;;;;11.09;79.09;96589.47;5090662;28;20268;-65
2021/05/26 08:58:06;;;;;;;2.27;1.20;;;;;;;11.20;77.78;96592.00;5088848;28;20228;-64
2021/05/26 09:00:32;;;;;;;2.30;1.40;;;;;;;11.12;79.10;96583.72;5090858;28;20273;-64
2021/05/26 09:02:57;;;;;;;2.10;1.30;;;;;;;11.05;78.41;96583.06;5094756;28;20176;-65
2021/05/26 09:05:25;;;;;;;1.20;1.20;;;;;;;10.89;78.83;96586.44;5094521;28;20633;-64
2021/05/26 09:07:51;;;;;;;1.40;1.30;;;;;;;11.00;80.51;96580.34;5092814;28;20677;-65
2021/05/26 09:10:17;;;;;;;3.17;1.57;;;;;;;11.04;79.77;96584.91;5093350;28;20167;-66
2021/05/26 09:12:45;;;;;;;3.53;1.20;;;;;;;11.00;77.68;96580.34;5094105;28;20176;-66
2021/05/26 09:15:16;;;;;;;1.57;1.07;;;;;;;10.92;78.77;96592.03;5089297;28;20212;-66
2021/05/26 09:17:56;;;;;;;2.00;1.30;;;;;;;11.00;77.71;96580.34;5073337;28;20207;-65
2021/05/26 09:20:29;;;;;;;1.67;1.10;;;;;;;11.19;78.09;96582.56;5092474;28;20207;-66
2021/05/26 09:23:06;;;;;;;3.27;1.37;;;;;;;11.33;78.29;96574.38;5092365;28;20176;-67
2021/05/26 09:25:35;;;;;;;3.33;1.57;;;;;;;11.42;78.20;96578.25;5092930;28;20177;-66
2021/05/26 09:28:33;;;;;;;2.50;1.40;;;;;;;11.62;77.33;96584.63;5091815;28;20217;-66
2021/05/26 09:31:06;;;;;;;1.77;1.50;;;;;;;11.71;77.01;96582.38;5092919;28;20675;-66
2021/05/26 09:33:39;;;;;;;1.40;1.30;;;;;;;11.62;76.83;96578.56;5093559;28;20652;-66
2021/05/26 09:36:09;;;;;;;1.97;1.10;;;;;;;11.58;76.55;96580.88;5092513;28;20196;-66
2021/05/26 09:38:39;;;;;;;2.07;1.20;;;;;;;11.52;76.39;96583.66;5093048;28;20185;-66
2021/05/26 09:41:09;;;;;;;2.07;1.40;;;;;;;11.60;76.77;96583.25;5091394;28;20257;-65
2021/05/26 09:43:43;;;;;;;1.60;1.30;;;;;;;11.41;75.68;96574.81;5090716;28;20188;-66
2021/05/26 09:46:33;;;;;;;2.37;1.40;;;;;;;11.49;75.63;96584.91;5091086;28;20201;-64
2021/05/26 09:49:09;;;;;;;1.00;1.00;;;;;;;11.43;76.65;96585.06;5084946;28;20181;-65
2021/05/26 09:51:55;;;;;;;2.13;1.10;;;;;;;11.60;76.80;96578.81;5088553;28;20181;-62
2021/05/26 09:54:22;;;;;;;0.90;0.90;;;;;;;11.62;78.21;96586.44;5081853;28;20189;-64
2021/05/26 09:57:06;;;;;;;1.10;1.00;;;;;;;11.67;76.13;96586.53;5091120;28;20204;-64
2021/05/26 09:59:33;;;;;;;1.47;0.93;;;;;;;11.82;75.40;96578.91;5087926;28;20292;-65
2021/05/26 10:01:58;;;;;;;1.60;1.37;;;;;;;11.60;74.78;96588.50;5072337;28;20205;-67
2021/05/26 10:04:25;;;;;;;1.97;1.00;;;;;;;11.67;74.61;96581.28;5091570;28;20188;-65
2021/05/26 10:06:53;;;;;;;1.53;1.00;;;;;;;11.79;74.43;96582.03;5091666;28;20197;-64
2021/05/26 10:09:21;;;;;;;3.17;0.83;;;;;;;11.86;74.25;96579.25;5090712;28;20168;-65
2021/05/26 10:11:50;;;;;;;0.87;0.87;;;;;;;11.88;73.54;96580.59;5091708;28;20593;-65
2021/05/26 10:14:16;;;;;;;0.73;0.73;;;;;;;11.98;73.14;96590.47;5090864;28;20180;-65
2021/05/26 10:16:44;;;;;;;1.17;1.07;;;;;;;11.87;72.54;96586.09;5089677;28;20873;-64
2021/05/26 10:19:12;;;;;;;1.63;0.93;;;;;;;12.03;71.37;96587.91;5092207;28;20229;-64
2021/05/26 10:21:38;;;;;;;1.40;0.80;;;;;;;12.08;70.68;96578.28;5092250;28;20653;-64
2021/05/26 10:24:08;;;;;;;1.70;0.60;;;;;;;12.23;70.02;96582.16;5087447;28;20291;-64
2021/05/26 10:26:50;;;;;;;0.87;0.87;;;;;;;12.42;70.58;96575.59;5091488;28;20211;-65
2021/05/26 10:29:38;;;;;;;0.77;0.77;;;;;;;12.41;70.60;96592.41;5090648;28;20665;-64
2021/05/26 10:32:13;;;;;;;0.80;0.80;;;;;;;12.55;69.09;96592.81;5088614;28;20176;-64
2021/05/26 10:34:42;;;;;;;1.63;0.70;;;;;;;12.41;69.51;96574.78;5090811;28;20230;-65
2021/05/26 10:37:08;;;;;;;1.33;0.77;;;;;;;12.72;68.89;96583.06;5090577;28;20212;-64
2021/05/26 10:39:34;;;;;;;1.63;0.63;;;;;;;12.65;68.75;96579.84;5091672;28;20184;-64
2021/05/26 10:42:01;;;;;;;1.60;0.60;;;;;;;12.44;68.52;96578.75;5089806;28;20192;-65
2021/05/26 10:45:09;;;;;;;2.57;0.70;;;;;;;12.46;67.67;96571.44;5090992;28;20181;-64
2021/05/26 10:47:38;;;;;;;1.33;0.90;;;;;;;12.45;69.54;96573.25;5089802;28;20728;-64
2021/05/26 10:50:20;;;;;;;0.77;0.77;;;;;;;12.58;68.52;96572.13;5090271;28;20173;-64
2021/05/26 10:52:54;;;;;;;0.90;0.90;;;;;;;12.25;69.38;96575.63;5095615;28;20543;-64
2021/05/26 10:55:46;;;;;;;0.70;0.70;;;;;;;12.48;68.90;96575.38;5089829;28;20188;-64
2021/05/26 10:58:18;;;;;;;0.60;0.60;;;;;;;12.75;69.22;96574.69;5091894;28;20247;-64
2021/05/26 11:00:55;;;;;;;0.73;0.70;;;;;;;12.46;69.55;96572.22;5100299;28;20200;-65
2021/05/26 11:03:24;;;;;;;0.90;0.90;;;;;;;12.60;68.66;96566.59;5101113;28;20185;-64
2021/05/26 11:05:55;;;;;;;0.87;0.87;;;;;;;12.59;69.02;96572.91;5103310;28;20225;-65
2021/05/26 11:11:25;;;;;;;0.70;0.70;;;;;;;12.57;68.61;96570.53;5090638;28;20621;-65
2021/05/26 11:14:10;;;;;;;0.70;0.70;;;;;;;12.50;69.13;96575.16;5093426;28;20176;-65
2021/05/26 11:16:45;;;;;;;0.80;0.80;;;;;;;12.56;69.78;96576.00;5100764;28;20348;-65
2021/05/26 11:19:13;;;;;;;0.70;0.70;;;;;;;12.62;69.49;96580.31;5100922;28;20179;-64
2021/05/26 11:22:01;;;;;;;0.80;0.80;;;;;;;12.90;68.60;96580.91;5102345;28;20195;-64
2021/05/26 11:24:33;;;;;;;1.47;0.60;;;;;;;13.18;68.63;96579.13;5102733;28;20187;-64
2021/05/26 11:26:59;;;;;;;0.63;0.63;;;;;;;12.98;69.01;96584.16;5102839;28;20204;-63
2021/05/26 11:29:29;;;;;;;1.20;1.00;;;;;;;13.10;68.40;96587.44;5100534;28;20197;-64
2021/05/26 11:32:11;;;;;;;0.70;0.70;;;;;;;13.06;67.47;96576.63;5098414;28;20161;-66
2021/05/26 11:34:40;;;;;;;0.90;0.70;;;;;;;12.75;68.16;96579.94;5095142;28;20172;-64
2021/05/26 11:37:07;;;;;;;0.90;0.90;;;;;;;12.76;67.96;96571.03;5098574;28;20203;-64
2021/05/26 11:39:34;;;;;;;0.77;0.77;;;;;;;12.93;67.70;96571.72;5110163;28;20187;-64
2021/05/26 11:42:16;;;;;;;0.70;0.70;;;;;;;12.83;68.16;96566.34;5109913;28;20203;-64
2021/05/26 11:44:44;;;;;;;0.93;0.63;;;;;;;12.76;67.77;96555.25;5092375;28;20207;-64